createdAt,value
2017-11-29T00:00:21.749Z,0
2017-11-29T00:01:43.733Z,0
2017-11-29T00:03:05.167Z,0
2017-11-29T00:04:26.655Z,0
2017-11-29T00:05:48.650Z,0
2017-11-29T00:07:10.786Z,0
2017-11-29T00:08:32.239Z,0
2017-11-29T00:09:53.941Z,0
2017-11-29T00:11:16.014Z,0
2017-11-29T00:12:37.720Z,0
2017-11-29T00:13:59.756Z,0
2017-11-29T00:15:21.743Z,0
2017-11-29T00:16:44.007Z,0
2017-11-29T00:18:06.366Z,0
2017-11-29T00:19:27.530Z,0
2017-11-29T00:20:49.508Z,0
2017-11-29T00:22:11.389Z,0
2017-11-29T00:23:32.380Z,0
2017-11-29T00:24:54.459Z,0
2017-11-29T00:26:16.170Z,0
2017-11-29T00:27:37.934Z,0
2017-11-29T00:28:59.679Z,0
2017-11-29T00:30:21.270Z,0
2017-11-29T00:31:43.378Z,0
2017-11-29T00:33:05.413Z,0
2017-11-29T00:34:27.137Z,0
2017-11-29T00:35:48.942Z,0
2017-11-29T00:37:10.939Z,0
2017-11-29T00:38:33.095Z,0
2017-11-29T00:39:55.194Z,0
2017-11-29T00:41:16.911Z,0
2017-11-29T00:42:38.953Z,0
2017-11-29T00:44:00.668Z,0
2017-11-29T00:45:22.376Z,0
2017-11-29T00:46:44.345Z,0
2017-11-29T00:48:06.335Z,0
2017-11-29T00:49:27.905Z,0
2017-11-29T00:50:49.870Z,0
2017-11-29T00:52:11.704Z,0
2017-11-29T00:53:33.146Z,0
2017-11-29T00:54:55.006Z,0
2017-11-29T00:56:16.733Z,0
2017-11-29T00:57:38.208Z,0
2017-11-29T00:59:00.456Z,0
2017-11-29T01:00:22.438Z,0
2017-11-29T01:01:44.418Z,0
2017-11-29T01:03:06.510Z,0
2017-11-29T01:04:28.268Z,0
2017-11-29T01:05:50.269Z,0
2017-11-29T01:07:12.260Z,0
2017-11-29T01:08:33.980Z,0
2017-11-29T01:09:55.978Z,0
2017-11-29T01:11:17.555Z,0
2017-11-29T01:12:39.014Z,0
2017-11-29T01:14:01.052Z,0
2017-11-29T01:15:23.096Z,0
2017-11-29T01:16:44.557Z,0
2017-11-29T01:18:06.285Z,0
2017-11-29T01:19:27.769Z,0
2017-11-29T01:20:50.158Z,0
2017-11-29T01:22:12.169Z,0
2017-11-29T01:23:34.163Z,0
2017-11-29T01:24:55.697Z,0
2017-11-29T01:26:17.146Z,0
2017-11-29T01:27:39.305Z,0
2017-11-29T01:29:01.007Z,0
2017-11-29T01:30:22.976Z,0
2017-11-29T01:31:44.962Z,0
2017-11-29T01:33:06.973Z,0
2017-11-29T01:34:28.689Z,0
2017-11-29T01:35:50.426Z,0
2017-11-29T01:37:12.140Z,0
2017-11-29T01:38:33.585Z,0
2017-11-29T01:39:55.288Z,0
2017-11-29T01:41:16.908Z,0
2017-11-29T01:42:38.749Z,0
2017-11-29T01:44:00.309Z,0
2017-11-29T01:45:21.472Z,0
2017-11-29T01:46:43.178Z,0
2017-11-29T01:48:05.418Z,0
2017-11-29T01:49:27.120Z,0
2017-11-29T01:50:49.219Z,0
2017-11-29T01:52:10.940Z,0
2017-11-29T01:53:32.936Z,0
2017-11-29T01:54:54.391Z,0
2017-11-29T01:56:15.793Z,0
2017-11-29T01:57:37.423Z,0
2017-11-29T01:58:59.464Z,0
2017-11-29T02:00:20.895Z,0
2017-11-29T02:01:42.610Z,0
2017-11-29T02:03:04.061Z,0
2017-11-29T02:04:25.809Z,0
2017-11-29T02:05:47.506Z,0
2017-11-29T02:07:09.942Z,0
2017-11-29T02:08:31.909Z,0
2017-11-29T02:09:53.893Z,0
2017-11-29T02:11:15.088Z,0
2017-11-29T02:12:37.175Z,0
2017-11-29T02:13:58.904Z,0
2017-11-29T02:15:20.859Z,0
2017-11-29T02:16:42.297Z,0
2017-11-29T02:18:04.038Z,0
2017-11-29T02:19:26.358Z,0
2017-11-29T02:20:48.622Z,0
2017-11-29T02:22:10.997Z,0
2017-11-29T02:23:32.434Z,0
2017-11-29T02:24:54.197Z,0
2017-11-29T02:26:16.179Z,0
2017-11-29T02:27:38.156Z,0
2017-11-29T02:28:59.868Z,0
2017-11-29T02:30:21.300Z,0
2017-11-29T02:31:43.495Z,0
2017-11-29T02:33:05.304Z,0
2017-11-29T02:34:27.145Z,0
2017-11-29T02:35:48.568Z,0
2017-11-29T02:37:10.587Z,0
2017-11-29T02:38:32.610Z,0
2017-11-29T02:39:54.590Z,0
2017-11-29T02:41:16.308Z,0
2017-11-29T02:42:38.219Z,0
2017-11-29T02:44:00.047Z,0
2017-11-29T02:45:21.588Z,0
2017-11-29T02:46:43.658Z,0
2017-11-29T02:48:05.378Z,0
2017-11-29T02:49:26.813Z,0
2017-11-29T02:50:49.083Z,0
2017-11-29T02:52:11.366Z,0
2017-11-29T02:53:33.626Z,0
2017-11-29T02:54:55.410Z,0
2017-11-29T02:56:17.428Z,0
2017-11-29T02:57:39.168Z,0
2017-11-29T02:59:00.903Z,0
2017-11-29T03:00:22.346Z,0
2017-11-29T03:01:44.078Z,0
2017-11-29T03:03:05.532Z,0
2017-11-29T03:04:26.751Z,0
2017-11-29T03:05:48.197Z,0
2017-11-29T03:07:10.176Z,0
2017-11-29T03:08:32.447Z,0
2017-11-29T03:09:53.611Z,0
2017-11-29T03:11:15.327Z,0
2017-11-29T03:12:37.300Z,0
2017-11-29T03:13:59.163Z,0
2017-11-29T03:15:20.873Z,0
2017-11-29T03:16:42.035Z,0
2017-11-29T03:18:03.474Z,0
2017-11-29T03:19:25.180Z,0
2017-11-29T03:20:47.242Z,0
2017-11-29T03:22:08.943Z,0
2017-11-29T03:23:30.954Z,0
2017-11-29T03:24:53.225Z,0
2017-11-29T03:26:15.214Z,0
2017-11-29T03:27:36.769Z,0
2017-11-29T03:28:59.097Z,0
2017-11-29T03:30:21.087Z,0
2017-11-29T03:31:43.106Z,0
2017-11-29T03:33:04.820Z,0
2017-11-29T03:34:27.085Z,0
2017-11-29T03:35:48.243Z,0
2017-11-29T03:37:10.210Z,0
2017-11-29T03:38:32.187Z,0
2017-11-29T03:39:53.635Z,0
2017-11-29T03:41:15.648Z,0
2017-11-29T03:42:38.009Z,0
2017-11-29T03:44:00.040Z,0
2017-11-29T03:45:22.036Z,0
2017-11-29T03:46:44.028Z,0
2017-11-29T03:48:05.997Z,0
2017-11-29T03:49:27.429Z,0
2017-11-29T03:50:48.884Z,0
2017-11-29T03:52:10.595Z,0
2017-11-29T03:53:32.309Z,0
2017-11-29T03:54:53.528Z,0
2017-11-29T03:56:15.346Z,0
2017-11-29T03:57:37.167Z,0
2017-11-29T03:58:59.609Z,0
2017-11-29T04:00:21.328Z,0
2017-11-29T04:01:43.162Z,0
2017-11-29T04:03:04.627Z,0
2017-11-29T04:04:26.340Z,0
2017-11-29T04:05:47.789Z,0
2017-11-29T04:07:09.487Z,0
2017-11-29T04:08:31.215Z,0
2017-11-29T04:09:52.648Z,0
2017-11-29T04:11:14.078Z,0
2017-11-29T04:12:36.473Z,0
2017-11-29T04:13:58.247Z,0
2017-11-29T04:15:20.514Z,0
2017-11-29T04:16:41.689Z,0
2017-11-29T04:18:03.421Z,0
2017-11-29T04:19:25.206Z,0
2017-11-29T04:20:46.702Z,0
2017-11-29T04:22:08.406Z,0
2017-11-29T04:23:30.407Z,0
2017-11-29T04:24:51.879Z,0
2017-11-29T04:26:14.296Z,0
2017-11-29T04:27:35.721Z,0
2017-11-29T04:28:57.138Z,0
2017-11-29T04:30:19.517Z,0
2017-11-29T04:31:41.782Z,0
2017-11-29T04:33:02.938Z,0
2017-11-29T04:34:24.380Z,0
2017-11-29T04:35:45.941Z,0
2017-11-29T04:37:07.714Z,0
2017-11-29T04:38:29.204Z,0
2017-11-29T04:39:50.934Z,0
2017-11-29T04:41:12.937Z,0
2017-11-29T04:42:34.375Z,0
2017-11-29T04:43:56.681Z,0
2017-11-29T04:45:18.373Z,0
2017-11-29T04:46:39.805Z,0
2017-11-29T04:48:01.256Z,0
2017-11-29T04:49:23.117Z,0
2017-11-29T04:50:45.115Z,0
2017-11-29T04:52:06.545Z,0
2017-11-29T04:53:27.976Z,0
2017-11-29T04:54:49.401Z,0
2017-11-29T04:56:10.928Z,0
2017-11-29T04:57:32.916Z,0
2017-11-29T04:58:54.591Z,0
2017-11-29T05:00:16.562Z,0
2017-11-29T05:01:38.267Z,0
2017-11-29T05:02:59.799Z,0
2017-11-29T05:04:21.624Z,0
2017-11-29T05:05:43.059Z,0
2017-11-29T05:07:05.091Z,0
2017-11-29T05:08:26.556Z,0
2017-11-29T05:09:48.651Z,0
2017-11-29T05:11:10.358Z,0
2017-11-29T05:12:32.077Z,0
2017-11-29T05:13:54.331Z,0
2017-11-29T05:15:16.337Z,0
2017-11-29T05:16:38.458Z,0
2017-11-29T05:18:00.476Z,0
2017-11-29T05:19:21.919Z,0
2017-11-29T05:20:43.337Z,0
2017-11-29T05:22:05.689Z,0
2017-11-29T05:23:27.677Z,0
2017-11-29T05:24:49.920Z,0
2017-11-29T05:26:11.190Z,0
2017-11-29T05:27:33.168Z,0
2017-11-29T05:28:55.167Z,0
2017-11-29T05:30:16.960Z,0
2017-11-29T05:31:38.678Z,0
2017-11-29T05:33:00.390Z,0
2017-11-29T05:34:22.187Z,0
2017-11-29T05:35:43.624Z,0
2017-11-29T05:37:05.341Z,0
2017-11-29T05:38:27.117Z,0
2017-11-29T05:39:49.383Z,0
2017-11-29T05:41:11.459Z,0
2017-11-29T05:42:33.178Z,0
2017-11-29T05:43:54.389Z,0
2017-11-29T05:45:16.664Z,0
2017-11-29T05:46:38.968Z,0
2017-11-29T05:48:01.288Z,0
2017-11-29T05:49:23.331Z,0
2017-11-29T05:50:45.716Z,0
2017-11-29T05:52:07.225Z,0
2017-11-29T05:53:29.617Z,0
2017-11-29T05:54:51.041Z,0
2017-11-29T05:56:12.275Z,0
2017-11-29T05:57:33.791Z,0
2017-11-29T05:58:55.539Z,0
2017-11-29T06:00:17.835Z,0
2017-11-29T06:01:39.897Z,0
2017-11-29T06:03:02.157Z,0
2017-11-29T06:04:24.667Z,0
2017-11-29T06:05:46.387Z,0
2017-11-29T06:07:08.496Z,0
2017-11-29T06:08:30.494Z,0
2017-11-29T06:09:52.729Z,0
2017-11-29T06:11:14.788Z,0
2017-11-29T06:12:36.516Z,0
2017-11-29T06:13:58.002Z,0
2017-11-29T06:15:20.636Z,0
2017-11-29T06:16:42.356Z,0
2017-11-29T06:18:04.137Z,0
2017-11-29T06:19:26.442Z,0
2017-11-29T06:20:48.445Z,0
2017-11-29T06:22:10.177Z,0
2017-11-29T06:23:31.972Z,0
2017-11-29T06:24:53.979Z,0
2017-11-29T06:26:16.085Z,0
2017-11-29T06:27:38.145Z,0
2017-11-29T06:29:00.118Z,0
2017-11-29T06:30:22.139Z,0
2017-11-29T06:31:44.430Z,0
2017-11-29T06:33:06.441Z,0
2017-11-29T06:34:27.866Z,0
2017-11-29T06:35:50.139Z,0
2017-11-29T06:37:12.409Z,0
2017-11-29T06:38:34.661Z,0
2017-11-29T06:39:56.809Z,0
2017-11-29T06:41:18.816Z,0
2017-11-29T06:42:40.824Z,0
2017-11-29T06:44:02.573Z,0
2017-11-29T06:45:24.853Z,0
2017-11-29T06:46:46.964Z,0
2017-11-29T06:48:08.943Z,0
2017-11-29T06:49:30.957Z,0
2017-11-29T06:50:53.275Z,0
2017-11-29T06:52:14.997Z,0
2017-11-29T06:53:36.746Z,0
2017-11-29T06:54:58.788Z,0
2017-11-29T06:56:20.209Z,0
2017-11-29T06:57:41.944Z,0
2017-11-29T06:59:04.022Z,0
2017-11-29T07:00:25.998Z,0
2017-11-29T07:01:47.430Z,0
2017-11-29T07:03:08.976Z,0
2017-11-29T07:04:30.678Z,0
2017-11-29T07:05:52.425Z,0
2017-11-29T07:07:14.560Z,0
2017-11-29T07:08:35.558Z,0
2017-11-29T07:09:57.266Z,0
2017-11-29T07:11:19.054Z,5
2017-11-29T07:12:40.535Z,5
2017-11-29T07:14:02.250Z,5
2017-11-29T07:15:24.113Z,5
2017-11-29T07:16:46.126Z,5
2017-11-29T07:18:07.547Z,5
2017-11-29T07:19:29.283Z,5
2017-11-29T07:20:51.287Z,5
2017-11-29T07:22:12.578Z,5
2017-11-29T07:23:34.578Z,5
2017-11-29T07:24:56.032Z,5
2017-11-29T07:26:17.823Z,10
2017-11-29T07:27:40.222Z,10
2017-11-29T07:29:01.957Z,10
2017-11-29T07:30:23.774Z,10
2017-11-29T07:31:45.946Z,10
2017-11-29T07:33:08.210Z,10
2017-11-29T07:34:29.991Z,10
2017-11-29T07:35:51.696Z,15
2017-11-29T07:37:13.482Z,15
2017-11-29T07:38:35.816Z,15
2017-11-29T07:39:57.582Z,15
2017-11-29T07:41:19.579Z,15
2017-11-29T07:42:41.031Z,20
2017-11-29T07:44:03.036Z,20
2017-11-29T07:45:25.301Z,20
2017-11-29T07:46:47.013Z,20
2017-11-29T07:48:09.226Z,25
2017-11-29T07:49:31.212Z,25
2017-11-29T07:50:52.386Z,25
2017-11-29T07:52:14.466Z,30
2017-11-29T07:53:35.697Z,30
2017-11-29T07:54:57.879Z,30
2017-11-29T07:56:20.480Z,30
2017-11-29T07:57:42.301Z,35
2017-11-29T07:59:04.005Z,35
2017-11-29T08:00:26.885Z,35
2017-11-29T08:01:48.876Z,30
2017-11-29T08:03:10.901Z,25
2017-11-29T08:04:32.316Z,25
2017-11-29T08:05:54.505Z,30
2017-11-29T08:07:16.289Z,30
2017-11-29T08:08:38.580Z,30
2017-11-29T08:10:00.708Z,25
2017-11-29T08:11:22.719Z,30
2017-11-29T08:12:44.451Z,30
2017-11-29T08:14:06.161Z,35
2017-11-29T08:15:28.182Z,35
2017-11-29T08:16:50.171Z,35
2017-11-29T08:18:12.441Z,40
2017-11-29T08:19:33.663Z,35
2017-11-29T08:20:55.643Z,35
2017-11-29T08:22:18.000Z,35
2017-11-29T08:23:39.977Z,40
2017-11-29T08:25:01.972Z,40
2017-11-29T08:26:23.969Z,40
2017-11-29T08:27:46.238Z,45
2017-11-29T08:29:07.791Z,50
2017-11-29T08:30:29.885Z,55
2017-11-29T08:31:52.180Z,55
2017-11-29T08:33:14.438Z,55
2017-11-29T08:34:36.749Z,55
2017-11-29T08:35:59.066Z,55
2017-11-29T08:37:20.789Z,55
2017-11-29T08:38:42.767Z,55
2017-11-29T08:40:04.777Z,55
2017-11-29T08:41:26.505Z,55
2017-11-29T08:42:48.725Z,55
2017-11-29T08:44:10.460Z,55
2017-11-29T08:45:32.464Z,55
2017-11-29T08:46:54.554Z,50
2017-11-29T08:48:16.836Z,50
2017-11-29T08:49:38.551Z,50
2017-11-29T08:50:59.727Z,50
2017-11-29T08:52:21.445Z,50
2017-11-29T08:53:43.180Z,50
2017-11-29T08:55:05.169Z,50
2017-11-29T08:56:26.969Z,55
2017-11-29T08:57:48.841Z,55
2017-11-29T08:59:10.653Z,55
2017-11-29T09:00:32.364Z,50
2017-11-29T09:01:54.515Z,55
2017-11-29T09:03:16.251Z,60
2017-11-29T09:04:38.536Z,70
2017-11-29T09:06:00.442Z,75
2017-11-29T09:07:22.451Z,70
2017-11-29T09:08:44.754Z,60
2017-11-29T09:10:06.462Z,65
2017-11-29T09:11:28.447Z,75
2017-11-29T09:12:49.957Z,80
2017-11-29T09:14:11.953Z,75
2017-11-29T09:15:34.007Z,80
2017-11-29T09:16:55.984Z,90
2017-11-29T09:18:17.719Z,95
2017-11-29T09:19:40.011Z,90
2017-11-29T09:21:02.037Z,90
2017-11-29T09:22:23.746Z,80
2017-11-29T09:23:45.744Z,70
2017-11-29T09:25:06.934Z,75
2017-11-29T09:26:28.475Z,80
2017-11-29T09:27:50.197Z,75
2017-11-29T09:29:11.932Z,85
2017-11-29T09:30:33.695Z,75
2017-11-29T09:31:55.949Z,70
2017-11-29T09:33:16.915Z,70
2017-11-29T09:34:39.078Z,80
2017-11-29T09:36:01.105Z,80
2017-11-29T09:37:22.835Z,75
2017-11-29T09:38:45.129Z,80
2017-11-29T09:40:07.189Z,85
2017-11-29T09:41:29.215Z,85
2017-11-29T09:42:51.495Z,90
2017-11-29T09:44:13.497Z,85
2017-11-29T09:45:35.594Z,75
2017-11-29T09:46:58.148Z,70
2017-11-29T09:48:20.278Z,80
2017-11-29T09:49:41.747Z,90
2017-11-29T09:51:03.474Z,90
2017-11-29T09:52:25.496Z,100
2017-11-29T09:53:47.209Z,90
2017-11-29T09:55:09.574Z,80
2017-11-29T09:56:31.828Z,85
2017-11-29T09:57:53.539Z,65
2017-11-29T09:59:15.413Z,60
2017-11-29T10:00:37.126Z,60
2017-11-29T10:01:58.948Z,80
2017-11-29T10:03:21.051Z,105
2017-11-29T10:04:43.112Z,105
2017-11-29T10:06:04.827Z,115
2017-11-29T10:07:27.108Z,105
2017-11-29T10:08:48.949Z,120
2017-11-29T10:10:10.958Z,125
2017-11-29T10:11:32.410Z,125
2017-11-29T10:12:54.511Z,120
2017-11-29T10:14:15.964Z,105
2017-11-29T10:15:37.766Z,130
2017-11-29T10:16:59.261Z,105
2017-11-29T10:18:21.255Z,110
2017-11-29T10:19:43.091Z,110
2017-11-29T10:21:04.924Z,115
2017-11-29T10:22:26.821Z,110
2017-11-29T10:23:48.533Z,110
2017-11-29T10:25:10.917Z,115
2017-11-29T10:26:32.995Z,120
2017-11-29T10:27:55.349Z,100
2017-11-29T10:29:17.355Z,85
2017-11-29T10:30:39.345Z,110
2017-11-29T10:32:01.055Z,115
2017-11-29T10:33:22.773Z,115
2017-11-29T10:34:45.082Z,120
2017-11-29T10:36:06.855Z,110
2017-11-29T10:37:29.025Z,105
2017-11-29T10:38:50.532Z,105
2017-11-29T10:40:12.168Z,110
2017-11-29T10:41:33.635Z,120
2017-11-29T10:42:56.013Z,130
2017-11-29T10:44:18.037Z,130
2017-11-29T10:45:40.065Z,135
2017-11-29T10:47:01.865Z,120
2017-11-29T10:48:23.745Z,115
2017-11-29T10:49:45.627Z,120
2017-11-29T10:51:07.352Z,100
2017-11-29T10:52:29.904Z,100
2017-11-29T10:53:51.378Z,90
2017-11-29T10:55:13.104Z,85
2017-11-29T10:56:35.119Z,100
2017-11-29T10:57:56.843Z,95
2017-11-29T10:59:19.342Z,95
2017-11-29T11:00:41.605Z,80
2017-11-29T11:02:03.957Z,80
2017-11-29T11:03:26.050Z,100
2017-11-29T11:04:47.787Z,100
2017-11-29T11:06:10.056Z,95
2017-11-29T11:07:32.333Z,90
2017-11-29T11:08:54.079Z,85
2017-11-29T11:10:16.507Z,85
2017-11-29T11:11:38.802Z,80
2017-11-29T11:13:00.860Z,75
2017-11-29T11:14:22.875Z,80
2017-11-29T11:15:44.622Z,90
2017-11-29T11:17:06.357Z,100
2017-11-29T11:18:28.120Z,100
2017-11-29T11:19:49.871Z,105
2017-11-29T11:21:12.159Z,95
2017-11-29T11:22:33.615Z,95
2017-11-29T11:23:55.637Z,90
2017-11-29T11:25:17.387Z,85
2017-11-29T11:26:39.687Z,90
2017-11-29T11:28:01.962Z,90
2017-11-29T11:29:23.946Z,85
2017-11-29T11:30:45.755Z,95
2017-11-29T11:32:07.775Z,85
2017-11-29T11:33:29.015Z,100
2017-11-29T11:34:51.034Z,110
2017-11-29T11:36:13.270Z,125
2017-11-29T11:37:35.544Z,120
2017-11-29T11:38:57.543Z,100
2017-11-29T11:40:19.618Z,110
2017-11-29T11:41:41.622Z,95
2017-11-29T11:43:03.604Z,95
2017-11-29T11:44:25.449Z,100
2017-11-29T11:45:47.793Z,100
2017-11-29T11:47:09.295Z,105
2017-11-29T11:48:31.015Z,95
2017-11-29T11:49:52.763Z,115
2017-11-29T11:51:14.800Z,115
2017-11-29T11:52:36.883Z,115
2017-11-29T11:53:59.145Z,105
2017-11-29T11:55:21.407Z,105
2017-11-29T11:56:43.156Z,95
2017-11-29T11:58:05.156Z,100
2017-11-29T11:59:26.978Z,95
2017-11-29T12:00:48.968Z,90
2017-11-29T12:02:10.982Z,85
2017-11-29T12:03:33.268Z,75
2017-11-29T12:04:55.519Z,75
2017-11-29T12:06:17.933Z,85
2017-11-29T12:07:39.973Z,95
2017-11-29T12:09:02.252Z,95
2017-11-29T12:10:24.051Z,105
2017-11-29T12:11:45.929Z,110
2017-11-29T12:13:07.842Z,95
2017-11-29T12:14:29.311Z,95
2017-11-29T12:15:51.112Z,105
2017-11-29T12:17:13.115Z,95
2017-11-29T12:18:34.858Z,90
2017-11-29T12:19:56.999Z,95
2017-11-29T12:21:19.330Z,110
2017-11-29T12:22:41.340Z,115
2017-11-29T12:24:02.854Z,120
2017-11-29T12:25:25.128Z,105
2017-11-29T12:26:47.459Z,100
2017-11-29T12:28:09.184Z,90
2017-11-29T12:29:31.187Z,90
2017-11-29T12:30:53.474Z,100
2017-11-29T12:32:15.778Z,95
2017-11-29T12:33:38.052Z,85
2017-11-29T12:35:00.126Z,85
2017-11-29T12:36:22.145Z,90
2017-11-29T12:37:44.306Z,85
2017-11-29T12:39:06.039Z,90
2017-11-29T12:40:27.777Z,90
2017-11-29T12:41:49.516Z,80
2017-11-29T12:43:11.227Z,80
2017-11-29T12:44:32.997Z,80
2017-11-29T12:45:55.021Z,80
2017-11-29T12:47:17.306Z,70
2017-11-29T12:48:39.625Z,80
2017-11-29T12:50:01.490Z,80
2017-11-29T12:51:23.253Z,80
2017-11-29T12:52:45.635Z,75
2017-11-29T12:54:07.629Z,80
2017-11-29T12:55:29.904Z,95
2017-11-29T12:56:52.193Z,90
2017-11-29T12:58:13.678Z,80
2017-11-29T12:59:35.699Z,85
2017-11-29T13:00:58.026Z,75
2017-11-29T13:02:20.039Z,70
2017-11-29T13:03:41.746Z,65
2017-11-29T13:05:02.974Z,60
2017-11-29T13:06:24.698Z,65
2017-11-29T13:07:46.799Z,60
2017-11-29T13:09:08.244Z,65
2017-11-29T13:10:30.256Z,60
2017-11-29T13:11:52.276Z,60
2017-11-29T13:13:14.375Z,50
2017-11-29T13:14:36.390Z,50
2017-11-29T13:15:58.401Z,55
2017-11-29T13:17:20.384Z,55
2017-11-29T13:18:42.470Z,65
2017-11-29T13:20:04.204Z,60
2017-11-29T13:21:26.284Z,60
2017-11-29T13:22:48.424Z,55
2017-11-29T13:24:10.142Z,55
2017-11-29T13:25:32.284Z,55
2017-11-29T13:26:53.993Z,50
2017-11-29T13:28:16.119Z,55
2017-11-29T13:29:37.587Z,55
2017-11-29T13:30:59.585Z,55
2017-11-29T13:32:21.808Z,55
2017-11-29T13:33:43.829Z,50
2017-11-29T13:35:05.413Z,45
2017-11-29T13:36:27.684Z,45
2017-11-29T13:37:49.739Z,40
2017-11-29T13:39:12.023Z,40
2017-11-29T13:40:34.386Z,35
2017-11-29T13:41:56.381Z,35
2017-11-29T13:43:18.663Z,35
2017-11-29T13:44:40.393Z,35
2017-11-29T13:46:02.410Z,35
2017-11-29T13:47:23.414Z,35
2017-11-29T13:48:45.129Z,35
2017-11-29T13:50:07.479Z,35
2017-11-29T13:51:29.794Z,35
2017-11-29T13:52:52.066Z,35
2017-11-29T13:54:14.053Z,35
2017-11-29T13:55:36.096Z,35
2017-11-29T13:56:57.881Z,35
2017-11-29T13:58:19.638Z,30
2017-11-29T13:59:41.650Z,30
2017-11-29T14:01:03.665Z,35
2017-11-29T14:02:25.693Z,30
2017-11-29T14:03:47.233Z,30
2017-11-29T14:05:09.775Z,30
2017-11-29T14:06:31.486Z,30
2017-11-29T14:07:53.320Z,30
2017-11-29T14:09:15.061Z,30
2017-11-29T14:10:37.059Z,25
2017-11-29T14:11:58.775Z,25
2017-11-29T14:13:20.802Z,25
2017-11-29T14:14:42.788Z,20
2017-11-29T14:16:04.902Z,20
2017-11-29T14:17:26.983Z,15
2017-11-29T14:18:48.986Z,15
2017-11-29T14:20:10.763Z,15
2017-11-29T14:21:32.546Z,15
2017-11-29T14:22:54.829Z,15
2017-11-29T14:24:17.255Z,15
2017-11-29T14:25:39.287Z,15
2017-11-29T14:27:01.337Z,15
2017-11-29T14:28:22.806Z,15
2017-11-29T14:29:45.135Z,15
2017-11-29T14:31:07.176Z,10
2017-11-29T14:32:29.234Z,10
2017-11-29T14:33:51.508Z,10
2017-11-29T14:35:13.229Z,10
2017-11-29T14:36:34.996Z,10
2017-11-29T14:37:57.706Z,10
2017-11-29T14:39:19.742Z,10
2017-11-29T14:40:41.748Z,10
2017-11-29T14:42:03.499Z,10
2017-11-29T14:43:25.085Z,10
2017-11-29T14:44:47.088Z,5
2017-11-29T14:46:08.851Z,10
2017-11-29T14:47:31.440Z,5
2017-11-29T14:48:52.902Z,5
2017-11-29T14:50:15.043Z,5
2017-11-29T14:51:37.106Z,5
2017-11-29T14:52:59.118Z,5
2017-11-29T14:54:21.503Z,5
2017-11-29T14:55:43.783Z,5
2017-11-29T14:57:06.111Z,5
2017-11-29T14:58:28.462Z,5
2017-11-29T14:59:50.474Z,5
2017-11-29T15:01:12.220Z,5
2017-11-29T15:02:34.336Z,5
2017-11-29T15:03:56.679Z,5
2017-11-29T15:05:18.133Z,5
2017-11-29T15:06:40.574Z,0
2017-11-29T15:08:02.372Z,0
2017-11-29T15:09:24.144Z,0
2017-11-29T15:10:45.787Z,0
2017-11-29T15:12:07.266Z,0
2017-11-29T15:13:29.415Z,0
2017-11-29T15:14:51.506Z,0
2017-11-29T15:16:13.807Z,0
2017-11-29T15:17:35.843Z,0
2017-11-29T15:18:58.117Z,0
2017-11-29T15:20:20.675Z,0
2017-11-29T15:21:42.431Z,0
2017-11-29T15:23:04.865Z,0
2017-11-29T15:24:26.888Z,0
2017-11-29T15:25:48.926Z,0
2017-11-29T15:27:11.030Z,0
2017-11-29T15:28:33.325Z,0
2017-11-29T15:29:55.338Z,0
2017-11-29T15:31:17.357Z,0
2017-11-29T15:32:39.515Z,0
2017-11-29T15:34:01.554Z,0
2017-11-29T15:35:23.545Z,0
2017-11-29T15:36:45.293Z,0
2017-11-29T15:38:07.711Z,0
2017-11-29T15:39:30.116Z,0
2017-11-29T15:40:51.841Z,0
2017-11-29T15:42:14.237Z,0
2017-11-29T15:43:36.317Z,0
2017-11-29T15:44:58.296Z,0
2017-11-29T15:46:20.615Z,0
2017-11-29T15:47:42.666Z,0
2017-11-29T15:49:04.955Z,0
2017-11-29T15:50:27.246Z,0
2017-11-29T15:51:49.313Z,0
2017-11-29T15:53:11.375Z,0
2017-11-29T15:54:33.114Z,0
2017-11-29T15:55:55.134Z,0
2017-11-29T15:57:16.710Z,0
2017-11-29T15:58:38.736Z,0
2017-11-29T16:00:00.588Z,0
2017-11-29T16:01:22.696Z,0
2017-11-29T16:02:44.176Z,0
2017-11-29T16:04:06.193Z,0
2017-11-29T16:05:27.923Z,0
2017-11-29T16:06:49.948Z,0
2017-11-29T16:08:12.072Z,0
2017-11-29T16:09:34.218Z,0
2017-11-29T16:10:56.347Z,0
2017-11-29T16:12:18.684Z,0
2017-11-29T16:13:40.865Z,0
2017-11-29T16:15:03.166Z,0
2017-11-29T16:16:25.197Z,0
2017-11-29T16:17:46.930Z,0
2017-11-29T16:19:08.977Z,0
2017-11-29T16:20:31.295Z,0
2017-11-29T16:21:53.348Z,0
2017-11-29T16:23:15.429Z,0
2017-11-29T16:24:37.167Z,0
2017-11-29T16:25:59.217Z,0
2017-11-29T16:27:21.672Z,0
2017-11-29T16:28:43.957Z,0
2017-11-29T16:30:05.750Z,0
2017-11-29T16:31:27.561Z,0
2017-11-29T16:32:49.641Z,0
2017-11-29T16:34:11.792Z,0
2017-11-29T16:35:33.807Z,0
2017-11-29T16:36:56.084Z,0
2017-11-29T16:38:17.815Z,0
2017-11-29T16:39:39.638Z,0
2017-11-29T16:41:01.097Z,0
2017-11-29T16:42:23.389Z,0
2017-11-29T16:43:45.699Z,0
2017-11-29T16:45:07.741Z,0
2017-11-29T16:46:29.782Z,0
2017-11-29T16:47:52.147Z,0
2017-11-29T16:49:13.731Z,0
2017-11-29T16:50:35.798Z,0
2017-11-29T16:51:58.175Z,0
2017-11-29T16:53:20.466Z,0
2017-11-29T16:54:42.688Z,0
2017-11-29T16:56:04.985Z,0
2017-11-29T16:57:26.897Z,0
2017-11-29T16:58:49.228Z,0
2017-11-29T17:00:11.565Z,0
2017-11-29T17:01:33.858Z,0
2017-11-29T17:02:56.162Z,0
2017-11-29T17:04:18.218Z,0
2017-11-29T17:05:40.532Z,0
2017-11-29T17:07:02.596Z,0
2017-11-29T17:08:24.868Z,0
2017-11-29T17:09:46.906Z,0
2017-11-29T17:11:09.017Z,0
2017-11-29T17:12:31.427Z,0
2017-11-29T17:13:53.459Z,0
2017-11-29T17:15:15.808Z,0
2017-11-29T17:16:37.901Z,0
2017-11-29T17:18:00.196Z,0
2017-11-29T17:19:22.535Z,0
2017-11-29T17:20:44.839Z,0
2017-11-29T17:22:06.418Z,0
2017-11-29T17:23:28.458Z,0
2017-11-29T17:24:50.516Z,0
2017-11-29T17:26:12.568Z,0
2017-11-29T17:27:34.885Z,0
2017-11-29T17:28:57.100Z,0
2017-11-29T17:30:19.137Z,0
2017-11-29T17:31:41.469Z,0
2017-11-29T17:33:03.807Z,0
2017-11-29T17:34:26.143Z,0
2017-11-29T17:35:48.504Z,0
2017-11-29T17:37:10.802Z,0
2017-11-29T17:38:33.143Z,0
2017-11-29T17:39:55.491Z,0
2017-11-29T17:41:17.032Z,0
2017-11-29T17:42:39.335Z,0
2017-11-29T17:44:01.067Z,0
2017-11-29T17:45:23.129Z,0
2017-11-29T17:46:45.372Z,0
2017-11-29T17:48:07.383Z,0
2017-11-29T17:49:29.697Z,0
2017-11-29T17:50:51.455Z,0
2017-11-29T17:52:13.829Z,0
2017-11-29T17:53:35.946Z,0
2017-11-29T17:54:58.160Z,0
2017-11-29T17:56:20.210Z,0
2017-11-29T17:57:42.640Z,0
2017-11-29T17:59:04.953Z,0
2017-11-29T18:00:26.739Z,0
2017-11-29T18:01:48.478Z,0
2017-11-29T18:03:10.712Z,0
2017-11-29T18:04:32.982Z,0
2017-11-29T18:05:55.531Z,0
2017-11-29T18:07:17.930Z,0
2017-11-29T18:08:39.399Z,0
2017-11-29T18:10:01.235Z,0
2017-11-29T18:11:23.096Z,0
2017-11-29T18:12:45.110Z,0
2017-11-29T18:14:07.650Z,0
2017-11-29T18:15:29.978Z,0
2017-11-29T18:16:52.077Z,0
2017-11-29T18:18:14.086Z,0
2017-11-29T18:19:36.095Z,0
2017-11-29T18:20:58.133Z,0
2017-11-29T18:22:20.518Z,0
2017-11-29T18:23:42.828Z,0
2017-11-29T18:25:05.224Z,0
2017-11-29T18:26:27.061Z,0
2017-11-29T18:27:49.188Z,0
2017-11-29T18:29:11.277Z,0
2017-11-29T18:30:33.110Z,0
2017-11-29T18:31:55.208Z,0
2017-11-29T18:33:17.592Z,0
2017-11-29T18:34:39.937Z,0
2017-11-29T18:36:01.670Z,0
2017-11-29T18:37:23.679Z,0
2017-11-29T18:38:45.739Z,0
2017-11-29T18:40:07.870Z,0
2017-11-29T18:41:29.900Z,0
2017-11-29T18:42:51.909Z,0
2017-11-29T18:44:14.466Z,0
2017-11-29T18:45:36.847Z,0
2017-11-29T18:46:59.277Z,0
2017-11-29T18:48:21.564Z,0
2017-11-29T18:49:43.612Z,0
2017-11-29T18:51:05.916Z,0
2017-11-29T18:52:28.252Z,0
2017-11-29T18:53:50.268Z,0
2017-11-29T18:55:12.142Z,0
2017-11-29T18:56:34.189Z,0
2017-11-29T18:57:55.917Z,0
2017-11-29T18:59:17.670Z,0
2017-11-29T19:00:39.723Z,0
2017-11-29T19:02:02.022Z,0
2017-11-29T19:03:24.047Z,0
2017-11-29T19:04:45.969Z,0
2017-11-29T19:06:08.315Z,0
2017-11-29T19:07:30.334Z,0
2017-11-29T19:08:52.178Z,0
2017-11-29T19:10:13.931Z,0
2017-11-29T19:11:36.018Z,0
2017-11-29T19:12:58.101Z,0
2017-11-29T19:14:20.008Z,0
2017-11-29T19:15:41.288Z,0
2017-11-29T19:17:03.666Z,0
2017-11-29T19:18:26.066Z,0
2017-11-29T19:19:48.503Z,0
2017-11-29T19:21:10.536Z,0
2017-11-29T19:22:32.600Z,0
2017-11-29T19:23:54.671Z,0
2017-11-29T19:25:16.973Z,0
2017-11-29T19:26:39.058Z,0
2017-11-29T19:28:01.103Z,0
2017-11-29T19:29:23.116Z,0
2017-11-29T19:30:44.928Z,0
2017-11-29T19:32:06.772Z,0
2017-11-29T19:33:28.806Z,0
2017-11-29T19:34:50.820Z,0
2017-11-29T19:36:13.119Z,0
2017-11-29T19:37:35.027Z,0
2017-11-29T19:38:57.069Z,0
2017-11-29T19:40:19.385Z,0
2017-11-29T19:41:41.396Z,0
2017-11-29T19:43:03.838Z,0
2017-11-29T19:44:25.973Z,0
2017-11-29T19:45:48.380Z,0
2017-11-29T19:47:10.396Z,0
2017-11-29T19:48:32.741Z,0
2017-11-29T19:49:55.303Z,0
2017-11-29T19:51:17.360Z,0